sensor_id;sensor_type;location;lat;lon;timestamp;temperature;humidity
21698;DHT22;11010;49.548;11.926;2024-03-25T06:14:31;4.10;99.90
21698;DHT22;11010;49.548;11.926;2024-03-25T06:16:57;4.20;99.90
21698;DHT22;11010;49.548;11.926;2024-03-25T06:19:23;4.10;99.90
21698;DHT22;11010;49.548;11.926;2024-03-25T06:21:50;4.10;99.90
21698;DHT22;11010;49.548;11.926;2024-03-25T06:24:17;4.20;99.90
21698;DHT22;11010;49.548;11.926;2024-03-25T06:26:43;4.20;99.90
21698;DHT22;11010;49.548;11.926;2024-03-25T06:29:09;4.10;99.90
21698;DHT22;11010;49.548;11.926;2024-03-25T06:31:36;4.20;99.90
21698;DHT22;11010;49.548;11.926;2024-03-25T06:34:20;4.20;99.90
21698;DHT22;11010;49.548;11.926;2024-03-25T06:36:49;4.20;99.90
21698;DHT22;11010;49.548;11.926;2024-03-25T06:39:15;4.20;99.90
21698;DHT22;11010;49.548;11.926;2024-03-25T06:41:41;4.30;99.90
21698;DHT22;11010;49.548;11.926;2024-03-25T06:44:07;4.30;99.90
21698;DHT22;11010;49.548;11.926;2024-03-25T06:46:34;4.30;99.90
21698;DHT22;11010;49.548;11.926;2024-03-25T06:49:00;4.30;99.90
21698;DHT22;11010;49.548;11.926;2024-03-25T06:51:26;4.30;99.90
21698;DHT22;11010;49.548;11.926;2024-03-25T06:53:52;4.30;99.90
21698;DHT22;11010;49.548;11.926;2024-03-25T06:56:18;4.40;99.90
21698;DHT22;11010;49.548;11.926;2024-03-25T06:58:45;4.40;99.90
21698;DHT22;11010;49.548;11.926;2024-03-25T07:01:11;4.40;99.90
21698;DHT22;11010;49.548;11.926;2024-03-25T07:03:40;4.40;99.90
21698;DHT22;11010;49.548;11.926;2024-03-25T07:06:06;4.40;99.90
21698;DHT22;11010;49.548;11.926;2024-03-25T07:08:32;4.50;99.90
21698;DHT22;11010;49.548;11.926;2024-03-25T07:10:59;4.40;99.90
21698;DHT22;11010;49.548;11.926;2024-03-25T07:13:25;4.40;99.90
21698;DHT22;11010;49.548;11.926;2024-03-25T07:15:51;4.40;99.90
21698;DHT22;11010;49.548;11.926;2024-03-25T07:18:17;4.50;99.90
21698;DHT22;11010;49.548;11.926;2024-03-25T07:20:44;4.60;99.90
21698;DHT22;11010;49.548;11.926;2024-03-25T07:23:11;4.60;99.90
21698;DHT22;11010;49.548;11.926;2024-03-25T07:25:37;4.60;99.90
21698;DHT22;11010;49.548;11.926;2024-03-25T07:28:03;4.60;99.90
21698;DHT22;11010;49.548;11.926;2024-03-25T07:30:30;4.70;99.90
21698;DHT22;11010;49.548;11.926;2024-03-25T07:32:57;4.70;99.90
21698;DHT22;11010;49.548;11.926;2024-03-25T07:35:23;4.80;99.90
21698;DHT22;11010;49.548;11.926;2024-03-25T07:37:49;4.70;99.90
21698;DHT22;11010;49.548;11.926;2024-03-25T07:40:19;4.70;99.90
21698;DHT22;11010;49.548;11.926;2024-03-25T07:42:45;4.80;99.90
21698;DHT22;11010;49.548;11.926;2024-03-25T07:45:11;4.80;99.90
21698;DHT22;11010;49.548;11.926;2024-03-25T07:47:37;4.80;99.90
21698;DHT22;11010;49.548;11.926;2024-03-25T07:50:04;4.80;99.90
21698;DHT22;11010;49.548;11.926;2024-03-25T07:52:31;4.80;99.90
21698;DHT22;11010;49.548;11.926;2024-03-25T07:54:57;4.90;99.90
21698;DHT22;11010;49.548;11.926;2024-03-25T07:57:24;4.90;99.90
21698;DHT22;11010;49.548;11.926;2024-03-25T07:59:50;5.10;99.90
21698;DHT22;11010;49.548;11.926;2024-03-25T08:02:16;5.10;99.90
21698;DHT22;11010;49.548;11.926;2024-03-25T08:04:42;5.10;99.90
21698;DHT22;11010;49.548;11.926;2024-03-25T08:07:08;5.20;99.90
21698;DHT22;11010;49.548;11.926;2024-03-25T08:09:34;5.20;99.90
21698;DHT22;11010;49.548;11.926;2024-03-25T08:12:00;5.40;99.90
21698;DHT22;11010;49.548;11.926;2024-03-25T08:14:26;5.50;99.90
21698;DHT22;11010;49.548;11.926;2024-03-25T08:16:52;5.70;99.90
21698;DHT22;11010;49.548;11.926;2024-03-25T08:19:18;5.70;99.90
21698;DHT22;11010;49.548;11.926;2024-03-25T08:21:44;5.80;99.90
21698;DHT22;11010;49.548;11.926;2024-03-25T08:24:10;5.80;99.90
21698;DHT22;11010;49.548;11.926;2024-03-25T08:26:37;5.70;99.90
21698;DHT22;11010;49.548;11.926;2024-03-25T08:29:03;5.60;99.90
21698;DHT22;11010;49.548;11.926;2024-03-25T08:31:29;5.70;99.90
21698;DHT22;11010;49.548;11.926;2024-03-25T08:33:55;5.70;99.90
21698;DHT22;11010;49.548;11.926;2024-03-25T08:36:22;5.80;99.90
21698;DHT22;11010;49.548;11.926;2024-03-25T08:38:48;5.70;99.90
21698;DHT22;11010;49.548;11.926;2024-03-25T08:41:14;5.70;99.90
21698;DHT22;11010;49.548;11.926;2024-03-25T08:43:41;5.70;99.90
21698;DHT22;11010;49.548;11.926;2024-03-25T08:46:07;5.80;99.90
21698;DHT22;11010;49.548;11.926;2024-03-25T08:48:32;6.00;99.90
21698;DHT22;11010;49.548;11.926;2024-03-25T08:50:59;6.00;99.90
21698;DHT22;11010;49.548;11.926;2024-03-25T08:53:25;5.80;99.90
21698;DHT22;11010;49.548;11.926;2024-03-25T08:55:50;5.80;99.90
21698;DHT22;11010;49.548;11.926;2024-03-25T08:58:16;5.80;99.90
21698;DHT22;11010;49.548;11.926;2024-03-25T09:00:43;5.90;99.90
21698;DHT22;11010;49.548;11.926;2024-03-25T09:03:09;5.80;99.90
21698;DHT22;11010;49.548;11.926;2024-03-25T09:05:37;5.90;99.90
21698;DHT22;11010;49.548;11.926;2024-03-25T09:08:08;5.80;99.90
21698;DHT22;11010;49.548;11.926;2024-03-25T09:10:37;5.90;99.90
21698;DHT22;11010;49.548;11.926;2024-03-25T09:13:21;6.10;99.90
21698;DHT22;11010;49.548;11.926;2024-03-25T09:15:49;6.00;99.90
21698;DHT22;11010;49.548;11.926;2024-03-25T09:18:15;6.10;99.90
21698;DHT22;11010;49.548;11.926;2024-03-25T09:20:41;6.20;99.90
21698;DHT22;11010;49.548;11.926;2024-03-25T09:23:07;6.20;99.90
21698;DHT22;11010;49.548;11.926;2024-03-25T09:25:33;6.10;99.90
21698;DHT22;11010;49.548;11.926;2024-03-25T09:27:59;6.20;99.90
21698;DHT22;11010;49.548;11.926;2024-03-25T09:30:26;6.30;99.90
21698;DHT22;11010;49.548;11.926;2024-03-25T09:32:52;6.40;99.90
21698;DHT22;11010;49.548;11.926;2024-03-25T09:35:18;6.40;99.90
21698;DHT22;11010;49.548;11.926;2024-03-25T09:37:46;6.40;99.90
21698;DHT22;11010;49.548;11.926;2024-03-25T09:40:12;6.40;99.90
21698;DHT22;11010;49.548;11.926;2024-03-25T09:42:48;6.30;99.90
21698;DHT22;11010;49.548;11.926;2024-03-25T09:45:17;6.20;99.90
21698;DHT22;11010;49.548;11.926;2024-03-25T09:47:47;6.20;99.90
21698;DHT22;11010;49.548;11.926;2024-03-25T09:50:14;6.30;99.90
21698;DHT22;11010;49.548;11.926;2024-03-25T09:52:47;6.60;99.90
21698;DHT22;11010;49.548;11.926;2024-03-25T09:55:13;7.00;99.90
21698;DHT22;11010;49.548;11.926;2024-03-25T09:57:39;7.30;99.90
21698;DHT22;11010;49.548;11.926;2024-03-25T10:00:08;7.30;99.90
21698;DHT22;11010;49.548;11.926;2024-03-25T10:02:39;7.20;99.90
21698;DHT22;11010;49.548;11.926;2024-03-25T10:05:06;7.00;99.90
21698;DHT22;11010;49.548;11.926;2024-03-25T10:07:33;7.20;99.90
21698;DHT22;11010;49.548;11.926;2024-03-25T10:10:06;7.20;99.90
21698;DHT22;11010;49.548;11.926;2024-03-25T10:12:32;7.30;99.90
21698;DHT22;11010;49.548;11.926;2024-03-25T10:14:59;7.00;99.90
21698;DHT22;11010;49.548;11.926;2024-03-25T10:17:25;6.90;99.90
21698;DHT22;11010;49.548;11.926;2024-03-25T10:19:54;6.80;99.90
21698;DHT22;11010;49.548;11.926;2024-03-25T10:22:20;6.70;99.90
21698;DHT22;11010;49.548;11.926;2024-03-25T10:24:47;6.50;99.90
21698;DHT22;11010;49.548;11.926;2024-03-25T10:27:18;6.60;99.90
21698;DHT22;11010;49.548;11.926;2024-03-25T10:29:52;6.60;99.90
21698;DHT22;11010;49.548;11.926;2024-03-25T10:32:19;6.60;99.90
21698;DHT22;11010;49.548;11.926;2024-03-25T10:34:45;6.40;99.90
21698;DHT22;11010;49.548;11.926;2024-03-25T10:37:12;6.40;99.90
21698;DHT22;11010;49.548;11.926;2024-03-25T10:39:49;6.50;99.90
21698;DHT22;11010;49.548;11.926;2024-03-25T10:42:19;6.60;99.90
21698;DHT22;11010;49.548;11.926;2024-03-25T10:44:47;6.70;99.90
21698;DHT22;11010;49.548;11.926;2024-03-25T10:47:25;6.90;99.90
21698;DHT22;11010;49.548;11.926;2024-03-25T10:49:57;7.00;99.90
21698;DHT22;11010;49.548;11.926;2024-03-25T10:52:24;7.20;99.90
21698;DHT22;11010;49.548;11.926;2024-03-25T10:54:52;7.10;99.90
21698;DHT22;11010;49.548;11.926;2024-03-25T10:57:20;7.00;99.90
21698;DHT22;11010;49.548;11.926;2024-03-25T10:59:47;7.00;99.90
21698;DHT22;11010;49.548;11.926;2024-03-25T11:02:14;7.20;99.90
21698;DHT22;11010;49.548;11.926;2024-03-25T11:04:42;7.50;99.90
21698;DHT22;11010;49.548;11.926;2024-03-25T11:07:13;7.60;99.90
21698;DHT22;11010;49.548;11.926;2024-03-25T11:09:40;8.00;99.90
21698;DHT22;11010;49.548;11.926;2024-03-25T11:12:10;8.80;99.90
21698;DHT22;11010;49.548;11.926;2024-03-25T11:14:37;9.10;99.90
21698;DHT22;11010;49.548;11.926;2024-03-25T11:17:14;9.70;99.90
21698;DHT22;11010;49.548;11.926;2024-03-25T11:19:41;10.30;99.90
21698;DHT22;11010;49.548;11.926;2024-03-25T11:22:09;9.90;99.90
21698;DHT22;11010;49.548;11.926;2024-03-25T11:24:36;9.50;99.90
21698;DHT22;11010;49.548;11.926;2024-03-25T11:27:08;9.20;99.90
21698;DHT22;11010;49.548;11.926;2024-03-25T11:29:35;8.60;99.90
21698;DHT22;11010;49.548;11.926;2024-03-25T11:32:04;8.20;99.90
21698;DHT22;11010;49.548;11.926;2024-03-25T11:34:31;8.10;99.90
21698;DHT22;11010;49.548;11.926;2024-03-25T11:36:57;8.50;99.90
21698;DHT22;11010;49.548;11.926;2024-03-25T11:39:24;8.50;99.90
21698;DHT22;11010;49.548;11.926;2024-03-25T11:41:52;8.30;99.90
21698;DHT22;11010;49.548;11.926;2024-03-25T11:44:19;8.00;99.90
21698;DHT22;11010;49.548;11.926;2024-03-25T11:46:45;8.40;99.90
21698;DHT22;11010;49.548;11.926;2024-03-25T11:49:15;9.10;99.90
21698;DHT22;11010;49.548;11.926;2024-03-25T11:51:44;9.00;99.90
21698;DHT22;11010;49.548;11.926;2024-03-25T11:54:12;9.60;99.90
21698;DHT22;11010;49.548;11.926;2024-03-25T11:56:40;9.40;99.90
21698;DHT22;11010;49.548;11.926;2024-03-25T11:59:07;9.10;99.90
21698;DHT22;11010;49.548;11.926;2024-03-25T12:01:34;9.20;99.90
21698;DHT22;11010;49.548;11.926;2024-03-25T12:04:12;9.30;99.90
21698;DHT22;11010;49.548;11.926;2024-03-25T12:06:38;9.20;99.90
21698;DHT22;11010;49.548;11.926;2024-03-25T12:09:04;8.80;99.90
21698;DHT22;11010;49.548;11.926;2024-03-25T12:11:49;9.20;99.90
21698;DHT22;11010;49.548;11.926;2024-03-25T12:14:15;9.90;99.90
21698;DHT22;11010;49.548;11.926;2024-03-25T12:16:42;10.30;99.90
21698;DHT22;11010;49.548;11.926;2024-03-25T12:19:08;9.50;99.90
21698;DHT22;11010;49.548;11.926;2024-03-25T12:21:34;9.40;99.90
21698;DHT22;11010;49.548;11.926;2024-03-25T12:24:00;8.70;99.90
21698;DHT22;11010;49.548;11.926;2024-03-25T12:26:26;8.70;99.90
21698;DHT22;11010;49.548;11.926;2024-03-25T12:28:52;8.80;99.90
21698;DHT22;11010;49.548;11.926;2024-03-25T12:31:18;8.70;99.90
21698;DHT22;11010;49.548;11.926;2024-03-25T12:33:45;9.00;99.90
21698;DHT22;11010;49.548;11.926;2024-03-25T12:36:14;9.20;99.90
21698;DHT22;11010;49.548;11.926;2024-03-25T12:38:40;9.30;99.90
21698;DHT22;11010;49.548;11.926;2024-03-25T12:41:10;9.30;99.90
21698;DHT22;11010;49.548;11.926;2024-03-25T12:43:43;8.90;99.90
21698;DHT22;11010;49.548;11.926;2024-03-25T12:46:11;8.90;99.90
21698;DHT22;11010;49.548;11.926;2024-03-25T12:48:37;9.20;99.90
21698;DHT22;11010;49.548;11.926;2024-03-25T12:51:04;9.30;99.90
21698;DHT22;11010;49.548;11.926;2024-03-25T12:53:30;10.00;99.90
21698;DHT22;11010;49.548;11.926;2024-03-25T12:55:56;10.00;99.90
21698;DHT22;11010;49.548;11.926;2024-03-25T12:58:23;10.20;99.90
21698;DHT22;11010;49.548;11.926;2024-03-25T13:00:49;10.20;99.90
21698;DHT22;11010;49.548;11.926;2024-03-25T13:03:15;10.40;99.90
21698;DHT22;11010;49.548;11.926;2024-03-25T13:05:43;9.90;99.90
21698;DHT22;11010;49.548;11.926;2024-03-25T13:08:09;10.10;99.90
21698;DHT22;11010;49.548;11.926;2024-03-25T13:10:36;10.10;99.90
21698;DHT22;11010;49.548;11.926;2024-03-25T13:13:02;10.90;99.90
21698;DHT22;11010;49.548;11.926;2024-03-25T13:15:28;11.00;99.90
21698;DHT22;11010;49.548;11.926;2024-03-25T13:17:54;11.70;99.90
21698;DHT22;11010;49.548;11.926;2024-03-25T13:20:20;11.70;99.90
21698;DHT22;11010;49.548;11.926;2024-03-25T13:22:49;11.80;99.90
21698;DHT22;11010;49.548;11.926;2024-03-25T13:25:15;11.30;99.90
21698;DHT22;11010;49.548;11.926;2024-03-25T13:27:41;11.00;99.90
21698;DHT22;11010;49.548;11.926;2024-03-25T13:30:07;10.70;99.90
21698;DHT22;11010;49.548;11.926;2024-03-25T13:32:34;11.60;99.90
21698;DHT22;11010;49.548;11.926;2024-03-25T13:35:00;12.00;99.90
21698;DHT22;11010;49.548;11.926;2024-03-25T13:37:27;10.70;99.90
21698;DHT22;11010;49.548;11.926;2024-03-25T13:39:53;11.20;99.90
21698;DHT22;11010;49.548;11.926;2024-03-25T13:42:19;12.50;99.90
21698;DHT22;11010;49.548;11.926;2024-03-25T13:44:45;12.40;99.90
21698;DHT22;11010;49.548;11.926;2024-03-25T13:47:11;12.30;99.90
21698;DHT22;11010;49.548;11.926;2024-03-25T13:49:37;13.20;99.90
21698;DHT22;11010;49.548;11.926;2024-03-25T13:52:04;13.60;99.90
21698;DHT22;11010;49.548;11.926;2024-03-25T13:54:30;13.50;99.90
21698;DHT22;11010;49.548;11.926;2024-03-25T13:56:57;13.80;99.90
21698;DHT22;11010;49.548;11.926;2024-03-25T13:59:23;13.70;99.90
21698;DHT22;11010;49.548;11.926;2024-03-25T14:01:49;12.40;99.90
21698;DHT22;11010;49.548;11.926;2024-03-25T14:04:17;13.10;99.90
21698;DHT22;11010;49.548;11.926;2024-03-25T14:06:43;13.50;99.90
21698;DHT22;11010;49.548;11.926;2024-03-25T14:09:26;13.20;99.90
21698;DHT22;11010;49.548;11.926;2024-03-25T14:11:52;12.70;99.90
21698;DHT22;11010;49.548;11.926;2024-03-25T14:14:18;12.80;99.90
21698;DHT22;11010;49.548;11.926;2024-03-25T14:16:44;13.40;99.90
21698;DHT22;11010;49.548;11.926;2024-03-25T14:19:10;13.20;99.90
21698;DHT22;11010;49.548;11.926;2024-03-25T14:21:36;13.50;99.90
21698;DHT22;11010;49.548;11.926;2024-03-25T14:24:05;14.20;99.90
21698;DHT22;11010;49.548;11.926;2024-03-25T14:26:31;14.10;99.90
21698;DHT22;11010;49.548;11.926;2024-03-25T14:28:57;14.30;99.90
21698;DHT22;11010;49.548;11.926;2024-03-25T14:31:26;14.70;99.90
21698;DHT22;11010;49.548;11.926;2024-03-25T14:33:52;13.60;99.90
21698;DHT22;11010;49.548;11.926;2024-03-25T14:36:18;13.90;99.90
21698;DHT22;11010;49.548;11.926;2024-03-25T14:38:44;14.00;99.90
21698;DHT22;11010;49.548;11.926;2024-03-25T14:41:19;13.80;99.90
21698;DHT22;11010;49.548;11.926;2024-03-25T14:43:45;14.20;99.90
21698;DHT22;11010;49.548;11.926;2024-03-25T14:46:11;13.70;99.90
21698;DHT22;11010;49.548;11.926;2024-03-25T14:48:37;13.70;99.90
21698;DHT22;11010;49.548;11.926;2024-03-25T14:51:03;13.40;99.90
21698;DHT22;11010;49.548;11.926;2024-03-25T14:53:30;13.40;99.90
21698;DHT22;11010;49.548;11.926;2024-03-25T14:55:56;13.80;99.90
21698;DHT22;11010;49.548;11.926;2024-03-25T14:58:22;13.20;99.90
21698;DHT22;11010;49.548;11.926;2024-03-25T15:00:48;13.20;99.90
21698;DHT22;11010;49.548;11.926;2024-03-25T15:03:14;13.30;99.90
21698;DHT22;11010;49.548;11.926;2024-03-25T15:05:40;13.10;99.90
21698;DHT22;11010;49.548;11.926;2024-03-25T15:08:06;13.50;99.90
21698;DHT22;11010;49.548;11.926;2024-03-25T15:10:35;13.60;99.90
21698;DHT22;11010;49.548;11.926;2024-03-25T15:13:01;13.30;99.90
21698;DHT22;11010;49.548;11.926;2024-03-25T15:15:28;12.90;99.90
21698;DHT22;11010;49.548;11.926;2024-03-25T15:17:56;12.60;99.90
21698;DHT22;11010;49.548;11.926;2024-03-25T15:20:22;12.40;99.90
21698;DHT22;11010;49.548;11.926;2024-03-25T15:22:48;12.30;99.90
21698;DHT22;11010;49.548;11.926;2024-03-25T15:25:14;12.50;99.90
21698;DHT22;11010;49.548;11.926;2024-03-25T15:27:40;12.40;99.90
21698;DHT22;11010;49.548;11.926;2024-03-25T15:30:07;12.40;99.90
21698;DHT22;11010;49.548;11.926;2024-03-25T15:32:33;12.70;99.90
21698;DHT22;11010;49.548;11.926;2024-03-25T15:34:59;12.70;99.90
21698;DHT22;11010;49.548;11.926;2024-03-25T15:37:25;13.00;99.90
21698;DHT22;11010;49.548;11.926;2024-03-25T15:39:51;13.20;99.90
21698;DHT22;11010;49.548;11.926;2024-03-25T15:42:17;13.30;99.90
21698;DHT22;11010;49.548;11.926;2024-03-25T15:44:45;13.20;99.90
21698;DHT22;11010;49.548;11.926;2024-03-25T15:47:11;12.80;99.90
21698;DHT22;11010;49.548;11.926;2024-03-25T15:49:37;12.80;99.90
21698;DHT22;11010;49.548;11.926;2024-03-25T15:52:03;13.10;99.90
21698;DHT22;11010;49.548;11.926;2024-03-25T15:54:29;12.80;99.90
21698;DHT22;11010;49.548;11.926;2024-03-25T15:56:55;12.80;99.90
21698;DHT22;11010;49.548;11.926;2024-03-25T15:59:21;12.50;99.90
21698;DHT22;11010;49.548;11.926;2024-03-25T16:01:47;12.20;99.90
21698;DHT22;11010;49.548;11.926;2024-03-25T16:04:14;12.40;99.90
21698;DHT22;11010;49.548;11.926;2024-03-25T16:06:40;12.60;99.90
21698;DHT22;11010;49.548;11.926;2024-03-25T16:09:06;12.20;99.90
21698;DHT22;11010;49.548;11.926;2024-03-25T16:11:34;12.20;99.90
21698;DHT22;11010;49.548;11.926;2024-03-25T16:14:00;12.20;99.90
21698;DHT22;11010;49.548;11.926;2024-03-25T16:16:26;12.20;99.90
21698;DHT22;11010;49.548;11.926;2024-03-25T16:18:52;12.10;99.90
21698;DHT22;11010;49.548;11.926;2024-03-25T16:21:18;11.90;99.90
21698;DHT22;11010;49.548;11.926;2024-03-25T16:23:56;11.70;99.90
21698;DHT22;11010;49.548;11.926;2024-03-25T16:26:23;11.70;99.90
21698;DHT22;11010;49.548;11.926;2024-03-25T16:28:49;11.70;99.90
21698;DHT22;11010;49.548;11.926;2024-03-25T16:31:15;11.40;99.90
21698;DHT22;11010;49.548;11.926;2024-03-25T16:33:41;11.50;99.90
21698;DHT22;11010;49.548;11.926;2024-03-25T16:36:07;11.50;99.90
21698;DHT22;11010;49.548;11.926;2024-03-25T16:38:33;11.40;99.90
21698;DHT22;11010;49.548;11.926;2024-03-25T16:40:59;11.40;99.90
21698;DHT22;11010;49.548;11.926;2024-03-25T16:43:26;11.20;99.90
21698;DHT22;11010;49.548;11.926;2024-03-25T16:45:52;11.20;99.90
21698;DHT22;11010;49.548;11.926;2024-03-25T16:48:18;11.10;99.90
21698;DHT22;11010;49.548;11.926;2024-03-25T16:50:45;11.10;99.90
21698;DHT22;11010;49.548;11.926;2024-03-25T16:53:12;11.00;99.90
21698;DHT22;11010;49.548;11.926;2024-03-25T16:55:39;10.90;99.90
21698;DHT22;11010;49.548;11.926;2024-03-25T16:58:05;10.90;99.90
21698;DHT22;11010;49.548;11.926;2024-03-25T17:00:31;10.80;99.90
21698;DHT22;11010;49.548;11.926;2024-03-25T17:02:57;10.70;99.90
21698;DHT22;11010;49.548;11.926;2024-03-25T17:05:23;10.50;99.90
21698;DHT22;11010;49.548;11.926;2024-03-25T17:07:49;10.40;99.90
21698;DHT22;11010;49.548;11.926;2024-03-25T17:10:15;10.40;99.90
21698;DHT22;11010;49.548;11.926;2024-03-25T17:12:42;10.40;99.90
21698;DHT22;11010;49.548;11.926;2024-03-25T17:15:08;10.00;99.90
21698;DHT22;11010;49.548;11.926;2024-03-25T17:17:34;10.10;99.90
21698;DHT22;11010;49.548;11.926;2024-03-25T17:20:03;9.90;99.90
21698;DHT22;11010;49.548;11.926;2024-03-25T17:22:39;9.90;99.90
21698;DHT22;11010;49.548;11.926;2024-03-25T17:25:05;9.80;99.90
21698;DHT22;11010;49.548;11.926;2024-03-25T17:27:31;9.80;99.90
21698;DHT22;11010;49.548;11.926;2024-03-25T17:29:58;9.60;99.90
21698;DHT22;11010;49.548;11.926;2024-03-25T17:32:24;9.60;99.90
21698;DHT22;11010;49.548;11.926;2024-03-25T17:34:50;9.50;99.90
21698;DHT22;11010;49.548;11.926;2024-03-25T17:37:16;9.40;99.90
21698;DHT22;11010;49.548;11.926;2024-03-25T17:39:42;9.40;99.90
21698;DHT22;11010;49.548;11.926;2024-03-25T17:42:09;9.30;99.90
21698;DHT22;11010;49.548;11.926;2024-03-25T17:44:35;9.20;99.90
21698;DHT22;11010;49.548;11.926;2024-03-25T17:47:01;9.10;99.90
21698;DHT22;11010;49.548;11.926;2024-03-25T17:49:28;9.00;99.90
21698;DHT22;11010;49.548;11.926;2024-03-25T17:51:55;9.10;99.90
21698;DHT22;11010;49.548;11.926;2024-03-25T17:54:21;9.10;99.90
21698;DHT22;11010;49.548;11.926;2024-03-25T17:56:47;9.10;99.90
21698;DHT22;11010;49.548;11.926;2024-03-25T17:59:13;9.00;99.90
21698;DHT22;11010;49.548;11.926;2024-03-25T18:01:39;8.90;99.90
21698;DHT22;11010;49.548;11.926;2024-03-25T18:04:06;8.70;99.90
21698;DHT22;11010;49.548;11.926;2024-03-25T18:06:34;8.60;99.90
21698;DHT22;11010;49.548;11.926;2024-03-25T18:09:00;8.60;99.90
21698;DHT22;11010;49.548;11.926;2024-03-25T18:11:27;8.40;99.90
21698;DHT22;11010;49.548;11.926;2024-03-25T18:13:54;8.60;99.90
21698;DHT22;11010;49.548;11.926;2024-03-25T18:16:20;8.50;99.90
21698;DHT22;11010;49.548;11.926;2024-03-25T18:18:46;8.40;99.90
21698;DHT22;11010;49.548;11.926;2024-03-25T18:21:12;8.30;99.90
21698;DHT22;11010;49.548;11.926;2024-03-25T18:23:38;8.30;99.90
21698;DHT22;11010;49.548;11.926;2024-03-25T18:26:06;8.30;99.90
21698;DHT22;11010;49.548;11.926;2024-03-25T18:28:32;8.30;99.90
21698;DHT22;11010;49.548;11.926;2024-03-25T18:30:59;8.10;99.90
21698;DHT22;11010;49.548;11.926;2024-03-25T18:33:26;8.00;99.90
21698;DHT22;11010;49.548;11.926;2024-03-25T18:35:52;8.10;99.90
21698;DHT22;11010;49.548;11.926;2024-03-25T18:38:18;8.20;99.90
21698;DHT22;11010;49.548;11.926;2024-03-25T18:40:44;8.20;99.90
21698;DHT22;11010;49.548;11.926;2024-03-25T18:43:11;8.10;99.90
21698;DHT22;11010;49.548;11.926;2024-03-25T18:45:37;8.00;99.90
21698;DHT22;11010;49.548;11.926;2024-03-25T18:48:11;8.00;99.90
21698;DHT22;11010;49.548;11.926;2024-03-25T18:50:39;8.10;99.90
21698;DHT22;11010;49.548;11.926;2024-03-25T18:53:06;8.00;99.90
21698;DHT22;11010;49.548;11.926;2024-03-25T18:55:32;7.80;99.90
21698;DHT22;11010;49.548;11.926;2024-03-25T18:58:01;7.60;99.90
21698;DHT22;11010;49.548;11.926;2024-03-25T19:00:30;7.90;99.90
21698;DHT22;11010;49.548;11.926;2024-03-25T19:02:57;7.90;99.90
21698;DHT22;11010;49.548;11.926;2024-03-25T19:05:24;7.80;99.90
21698;DHT22;11010;49.548;11.926;2024-03-25T19:07:53;7.60;99.90
21698;DHT22;11010;49.548;11.926;2024-03-25T19:10:23;7.40;99.90
21698;DHT22;11010;49.548;11.926;2024-03-25T19:12:52;7.50;99.90
21698;DHT22;11010;49.548;11.926;2024-03-25T19:15:19;7.40;99.90
21698;DHT22;11010;49.548;11.926;2024-03-25T19:17:47;7.40;99.90
21698;DHT22;11010;49.548;11.926;2024-03-25T19:20:15;7.30;99.90
21698;DHT22;11010;49.548;11.926;2024-03-25T19:22:44;7.40;99.90
21698;DHT22;11010;49.548;11.926;2024-03-25T19:25:12;7.40;99.90
21698;DHT22;11010;49.548;11.926;2024-03-25T19:27:43;7.20;99.90
21698;DHT22;11010;49.548;11.926;2024-03-25T19:30:11;7.10;99.90
21698;DHT22;11010;49.548;11.926;2024-03-25T19:32:37;7.20;99.90
21698;DHT22;11010;49.548;11.926;2024-03-25T19:35:04;7.40;99.90
21698;DHT22;11010;49.548;11.926;2024-03-25T19:37:31;7.30;99.90
21698;DHT22;11010;49.548;11.926;2024-03-25T19:39:57;7.20;99.90
21698;DHT22;11010;49.548;11.926;2024-03-25T19:42:23;7.20;99.90
21698;DHT22;11010;49.548;11.926;2024-03-25T19:44:50;6.90;99.90
21698;DHT22;11010;49.548;11.926;2024-03-25T19:47:17;6.70;99.90
21698;DHT22;11010;49.548;11.926;2024-03-25T19:49:44;6.80;99.90
21698;DHT22;11010;49.548;11.926;2024-03-25T19:52:11;6.70;99.90
21698;DHT22;11010;49.548;11.926;2024-03-25T19:54:42;6.90;99.90
21698;DHT22;11010;49.548;11.926;2024-03-25T19:57:09;7.10;99.90
21698;DHT22;11010;49.548;11.926;2024-03-25T19:59:39;7.10;99.90
21698;DHT22;11010;49.548;11.926;2024-03-25T20:02:08;7.00;99.90
21698;DHT22;11010;49.548;11.926;2024-03-25T20:04:36;6.90;99.90
21698;DHT22;11010;49.548;11.926;2024-03-25T20:07:03;6.70;99.90
21698;DHT22;11010;49.548;11.926;2024-03-25T20:09:33;6.80;99.90
21698;DHT22;11010;49.548;11.926;2024-03-25T20:12:06;6.70;99.90
21698;DHT22;11010;49.548;11.926;2024-03-25T20:14:33;6.70;99.90
21698;DHT22;11010;49.548;11.926;2024-03-25T20:17:00;6.60;99.90
21698;DHT22;11010;49.548;11.926;2024-03-25T20:19:28;6.70;99.90
21698;DHT22;11010;49.548;11.926;2024-03-25T20:21:56;6.60;99.90
21698;DHT22;11010;49.548;11.926;2024-03-25T20:24:26;6.60;99.90
21698;DHT22;11010;49.548;11.926;2024-03-25T20:26:54;6.50;99.90
21698;DHT22;11010;49.548;11.926;2024-03-25T20:29:22;6.50;99.90
21698;DHT22;11010;49.548;11.926;2024-03-25T20:31:49;6.40;99.90
21698;DHT22;11010;49.548;11.926;2024-03-25T20:34:15;6.30;99.90
21698;DHT22;11010;49.548;11.926;2024-03-25T20:36:44;6.30;99.90
21698;DHT22;11010;49.548;11.926;2024-03-25T20:39:11;6.20;99.90
21698;DHT22;11010;49.548;11.926;2024-03-25T20:41:42;6.10;99.90
21698;DHT22;11010;49.548;11.926;2024-03-25T20:44:14;6.40;99.90
21698;DHT22;11010;49.548;11.926;2024-03-25T20:46:45;6.40;99.90
21698;DHT22;11010;49.548;11.926;2024-03-25T20:49:15;6.40;99.90
21698;DHT22;11010;49.548;11.926;2024-03-25T20:51:43;6.30;99.90
21698;DHT22;11010;49.548;11.926;2024-03-25T20:54:11;6.30;99.90
21698;DHT22;11010;49.548;11.926;2024-03-25T20:56:40;6.00;99.90
21698;DHT22;11010;49.548;11.926;2024-03-25T20:59:07;6.00;99.90
21698;DHT22;11010;49.548;11.926;2024-03-25T21:01:33;5.90;99.90
21698;DHT22;11010;49.548;11.926;2024-03-25T21:04:01;6.10;99.90
21698;DHT22;11010;49.548;11.926;2024-03-25T21:06:28;6.30;99.90
21698;DHT22;11010;49.548;11.926;2024-03-25T21:08:57;5.90;99.90
21698;DHT22;11010;49.548;11.926;2024-03-25T21:11:23;6.20;99.90
21698;DHT22;11010;49.548;11.926;2024-03-25T21:13:52;6.10;99.90
21698;DHT22;11010;49.548;11.926;2024-03-25T21:16:24;6.00;99.90
21698;DHT22;11010;49.548;11.926;2024-03-25T21:18:51;6.00;99.90
21698;DHT22;11010;49.548;11.926;2024-03-25T21:21:19;6.00;99.90
21698;DHT22;11010;49.548;11.926;2024-03-25T21:23:46;5.90;99.90
21698;DHT22;11010;49.548;11.926;2024-03-25T21:26:15;5.80;99.90
21698;DHT22;11010;49.548;11.926;2024-03-25T21:28:43;5.80;99.90
21698;DHT22;11010;49.548;11.926;2024-03-25T21:31:11;5.60;99.90
21698;DHT22;11010;49.548;11.926;2024-03-25T21:33:39;5.80;99.90
21698;DHT22;11010;49.548;11.926;2024-03-25T21:36:07;5.80;99.90
21698;DHT22;11010;49.548;11.926;2024-03-25T21:38:36;5.70;99.90
21698;DHT22;11010;49.548;11.926;2024-03-25T21:41:03;5.60;99.90